createdAt,value
2022-12-29T00:00:36.871Z,3.85
2022-12-29T00:03:14.669Z,4.25
2022-12-29T00:05:59.584Z,2.92
2022-12-29T00:08:46.428Z,2.03
2022-12-29T00:11:38.808Z,2.53
2022-12-29T00:14:46.972Z,3.65
2022-12-29T00:17:21.626Z,7.22
2022-12-29T00:20:09.876Z,5.72
2022-12-29T00:22:58.491Z,5.47
2022-12-29T00:25:56.814Z,8.07
2022-12-29T00:29:00.547Z,7.55
2022-12-29T00:31:57.361Z,7.07
2022-12-29T00:34:55.030Z,7.93
2022-12-29T00:37:49.230Z,9.93
2022-12-29T00:40:40.180Z,6.07
2022-12-29T00:43:39.853Z,5.60
2022-12-29T00:46:15.812Z,5.57
2022-12-29T00:49:15.064Z,6.15
2022-12-29T00:51:51.482Z,5.97
2022-12-29T00:54:33.652Z,3.97
2022-12-29T00:57:05.223Z,4.53
2022-12-29T00:59:42.609Z,4.90
2022-12-29T01:02:18.218Z,4.45
2022-12-29T01:04:55.406Z,6.65
2022-12-29T01:07:36.862Z,4.43
2022-12-29T01:10:17.166Z,5.07
2022-12-29T01:12:49.517Z,9.07
2022-12-29T01:15:20.146Z,7.25
2022-12-29T01:18:08.112Z,5.28
2022-12-29T01:20:42.012Z,5.03
2022-12-29T01:23:17.092Z,6.50
2022-12-29T01:25:50.638Z,3.92
2022-12-29T01:28:26.808Z,7.97
2022-12-29T01:31:06.084Z,5.20
2022-12-29T01:33:41.221Z,4.85
2022-12-29T01:36:17.463Z,10.57
2022-12-29T01:39:02.798Z,9.52
2022-12-29T01:41:36.617Z,6.57
2022-12-29T01:44:47.384Z,7.75
2022-12-29T01:47:27.235Z,6.38
2022-12-29T01:50:03.846Z,6.93
2022-12-29T01:55:09.080Z,5.60
2022-12-29T01:57:51.945Z,6.50
2022-12-29T02:00:28.188Z,7.47
2022-12-29T02:03:15.754Z,6.43
2022-12-29T02:06:19.531Z,5.90
2022-12-29T02:08:55.017Z,6.93
2022-12-29T02:11:30.731Z,5.22
2022-12-29T02:14:04.215Z,5.95
2022-12-29T02:17:16.615Z,7.90
2022-12-29T02:20:47.910Z,8.02
2022-12-29T02:23:59.933Z,8.52
2022-12-29T02:27:23.228Z,8.27
2022-12-29T02:30:05.129Z,9.43
2022-12-29T02:33:02.585Z,8.68
2022-12-29T02:36:04.457Z,9.95
2022-12-29T02:38:59.903Z,9.90
2022-12-29T02:42:10.962Z,7.78
2022-12-29T02:45:05.386Z,11.57
2022-12-29T02:47:51.172Z,8.32
2022-12-29T02:50:52.726Z,9.45
2022-12-29T02:53:45.717Z,11.80
2022-12-29T02:56:22.354Z,8.23
2022-12-29T02:58:52.604Z,7.43
2022-12-29T03:02:06.266Z,8.48
2022-12-29T03:05:08.848Z,11.73
2022-12-29T03:08:17.481Z,10.68
2022-12-29T03:11:27.077Z,8.35
2022-12-29T03:14:36.952Z,9.82
2022-12-29T03:17:15.830Z,10.35
2022-12-29T03:19:53.731Z,16.75
2022-12-29T03:22:36.460Z,7.55
2022-12-29T03:25:28.222Z,7.80
2022-12-29T03:28:16.308Z,8.43
2022-12-29T03:30:55.929Z,8.05
2022-12-29T03:33:33.446Z,11.20
2022-12-29T03:36:18.028Z,7.85
2022-12-29T03:39:10.749Z,9.07
2022-12-29T03:41:46.930Z,6.80
2022-12-29T03:44:19.997Z,6.18
2022-12-29T03:46:50.798Z,5.15
2022-12-29T03:49:25.261Z,7.05
2022-12-29T03:51:56.483Z,9.70
2022-12-29T03:54:39.863Z,7.00
2022-12-29T03:57:12.477Z,6.50
2022-12-29T03:59:59.788Z,5.25
2022-12-29T04:02:49.641Z,7.50
2022-12-29T04:05:29.876Z,6.55
2022-12-29T04:08:02.196Z,4.82
2022-12-29T04:10:35.595Z,5.60
2022-12-29T04:13:11.959Z,9.80
2022-12-29T04:15:55.868Z,7.50
2022-12-29T04:18:48.116Z,5.60
2022-12-29T04:21:21.679Z,8.60
2022-12-29T04:23:54.742Z,7.07
2022-12-29T04:26:27.849Z,6.05
2022-12-29T04:29:32.354Z,6.93
2022-12-29T04:32:34.271Z,3.20
2022-12-29T04:35:07.292Z,9.57
2022-12-29T04:37:38.229Z,5.18
2022-12-29T04:40:17.440Z,5.50
2022-12-29T04:42:54.818Z,4.43
2022-12-29T04:45:38.514Z,6.70
2022-12-29T04:48:36.007Z,5.50
2022-12-29T04:51:23.785Z,5.10
2022-12-29T04:53:57.379Z,7.15
2022-12-29T04:56:28.747Z,6.53
2022-12-29T04:59:06.579Z,6.32
2022-12-29T05:02:00.558Z,5.43
2022-12-29T05:04:37.812Z,4.93
2022-12-29T05:07:10.827Z,4.88
2022-12-29T05:09:57.697Z,4.93
2022-12-29T05:12:35.253Z,4.75
2022-12-29T05:15:15.167Z,5.15
2022-12-29T05:17:53.863Z,7.57
2022-12-29T05:20:27.346Z,6.30
2022-12-29T05:23:00.371Z,14.25
2022-12-29T05:25:37.451Z,10.32
2022-12-29T05:28:24.539Z,6.93
2022-12-29T05:31:14.823Z,6.03
2022-12-29T05:33:54.928Z,11.38
2022-12-29T05:36:37.240Z,4.97
2022-12-29T05:39:14.271Z,7.65
2022-12-29T05:41:55.408Z,7.15
2022-12-29T05:44:59.505Z,5.53
2022-12-29T05:47:48.277Z,5.60
2022-12-29T05:53:30.630Z,9.82
2022-12-29T05:56:12.039Z,9.90
2022-12-29T05:58:43.432Z,10.18
2022-12-29T06:01:17.099Z,9.98
2022-12-29T06:03:48.718Z,6.15
2022-12-29T06:06:34.257Z,6.90
2022-12-29T06:09:08.919Z,7.10
2022-12-29T06:11:56.576Z,9.45
2022-12-29T06:14:42.426Z,8.18
2022-12-29T06:17:14.151Z,7.97
2022-12-29T06:19:57.700Z,7.68
2022-12-29T06:22:32.236Z,10.73
2022-12-29T06:25:12.611Z,6.28
2022-12-29T06:27:44.853Z,4.68
2022-12-29T06:30:18.341Z,6.60
2022-12-29T06:32:54.171Z,9.18
2022-12-29T06:35:25.030Z,5.18
2022-12-29T06:38:01.572Z,7.78
2022-12-29T06:40:33.627Z,6.57
2022-12-29T06:43:09.675Z,6.40
2022-12-29T06:46:03.693Z,5.97
2022-12-29T06:48:33.811Z,9.05
2022-12-29T06:51:13.026Z,5.78
2022-12-29T06:53:52.308Z,5.85
2022-12-29T06:56:29.200Z,8.23
2022-12-29T06:59:06.366Z,8.80
2022-12-29T07:01:44.911Z,4.88
2022-12-29T07:04:17.920Z,7.65
2022-12-29T07:06:54.143Z,9.05
2022-12-29T07:09:27.313Z,11.13
2022-12-29T07:12:03.855Z,18.23
2022-12-29T07:14:43.148Z,23.05
2022-12-29T07:17:23.827Z,20.23
2022-12-29T07:19:53.964Z,10.63
2022-12-29T07:22:27.616Z,13.18
2022-12-29T07:25:09.404Z,10.98
2022-12-29T07:27:48.686Z,13.70
2022-12-29T07:30:25.239Z,11.02
2022-12-29T07:33:03.142Z,10.80
2022-12-29T07:38:20.424Z,8.32
2022-12-29T07:41:12.535Z,7.07
2022-12-29T07:43:50.825Z,7.80
2022-12-29T07:47:02.311Z,5.50
2022-12-29T07:49:48.131Z,7.82
2022-12-29T07:52:35.768Z,7.32
2022-12-29T07:55:12.291Z,10.20
2022-12-29T07:58:00.191Z,12.02
2022-12-29T08:00:38.961Z,8.13
2022-12-29T08:03:23.290Z,12.95
2022-12-29T08:08:41.844Z,7.68
2022-12-29T08:11:17.978Z,6.75
2022-12-29T08:14:01.050Z,12.43
2022-12-29T08:16:53.011Z,10.25
2022-12-29T08:19:27.311Z,6.68
2022-12-29T08:22:00.859Z,6.53
2022-12-29T08:24:42.422Z,9.13
2022-12-29T08:27:21.557Z,11.32
2022-12-29T08:32:38.675Z,9.18
2022-12-29T08:35:14.992Z,7.32
2022-12-29T08:37:48.248Z,5.53
2022-12-29T08:40:20.671Z,5.40
2022-12-29T08:42:56.849Z,11.68
2022-12-29T08:45:31.828Z,5.07
2022-12-29T08:48:10.765Z,5.78
2022-12-29T08:50:45.849Z,5.32
2022-12-29T08:53:16.347Z,5.07
2022-12-29T08:56:02.399Z,7.50
2022-12-29T08:58:40.429Z,5.45
2022-12-29T09:01:14.529Z,4.43
2022-12-29T09:06:44.861Z,3.63
2022-12-29T09:09:27.363Z,5.65
2022-12-29T09:12:14.134Z,2.67
2022-12-29T09:14:54.236Z,3.63
2022-12-29T09:17:50.898Z,4.80
2022-12-29T09:20:28.668Z,1.42
2022-12-29T09:23:07.553Z,2.35
2022-12-29T09:25:41.015Z,4.72
2022-12-29T09:28:15.956Z,1.23
2022-12-29T09:30:52.336Z,1.40
2022-12-29T09:33:32.744Z,5.80
2022-12-29T09:36:07.393Z,5.13
2022-12-29T09:38:47.404Z,3.00
2022-12-29T09:41:47.135Z,3.13
2022-12-29T09:44:45.327Z,9.02
2022-12-29T09:47:20.286Z,4.28
2022-12-29T09:49:58.395Z,4.72
2022-12-29T09:52:53.044Z,4.63
2022-12-29T09:55:36.251Z,3.67
2022-12-29T09:58:17.633Z,2.65
2022-12-29T10:03:39.535Z,3.95
2022-12-29T10:06:56.461Z,6.07
2022-12-29T10:09:47.934Z,5.18
2022-12-29T10:12:54.632Z,6.00
2022-12-29T10:15:44.354Z,3.58
2022-12-29T10:18:32.826Z,3.45
2022-12-29T10:21:32.389Z,5.35
2022-12-29T10:24:07.825Z,6.80
2022-12-29T10:26:47.197Z,3.60
2022-12-29T10:29:45.778Z,4.00
2022-12-29T10:32:42.039Z,2.75
2022-12-29T10:35:23.788Z,4.18
2022-12-29T10:38:30.195Z,4.72
2022-12-29T10:41:22.257Z,5.03
2022-12-29T10:43:55.960Z,5.70
2022-12-29T10:46:54.842Z,7.00
2022-12-29T10:49:39.897Z,3.78
2022-12-29T10:52:18.382Z,4.22
2022-12-29T10:55:23.934Z,4.65
2022-12-29T10:58:07.495Z,3.80
2022-12-29T11:00:53.518Z,4.82
2022-12-29T11:04:25.761Z,2.45
2022-12-29T11:06:56.597Z,3.10
2022-12-29T11:09:42.397Z,3.15
2022-12-29T11:12:33.781Z,4.05
2022-12-29T11:15:17.349Z,2.47
2022-12-29T11:17:50.892Z,4.57
2022-12-29T11:20:35.130Z,6.03
2022-12-29T11:23:31.941Z,3.65
2022-12-29T11:26:43.095Z,4.63
2022-12-29T11:29:45.347Z,7.18
2022-12-29T11:32:31.363Z,3.72
2022-12-29T11:35:09.496Z,4.07
2022-12-29T11:37:58.374Z,5.43
2022-12-29T11:40:43.042Z,4.00
2022-12-29T11:43:44.961Z,6.50
2022-12-29T11:46:31.588Z,3.22
2022-12-29T11:49:06.750Z,2.47
2022-12-29T11:51:47.887Z,2.83
2022-12-29T11:54:44.046Z,4.00
2022-12-29T11:57:23.254Z,5.15
2022-12-29T12:00:04.326Z,5.05
2022-12-29T12:03:01.729Z,5.70
2022-12-29T12:08:28.496Z,4.13
2022-12-29T12:11:19.603Z,3.65
2022-12-29T12:14:27.577Z,3.72
2022-12-29T12:17:34.058Z,5.45
2022-12-29T12:20:31.155Z,4.07
2022-12-29T12:23:37.730Z,3.70
2022-12-29T12:26:39.477Z,1.88
2022-12-29T12:29:28.440Z,2.67
2022-12-29T12:32:16.079Z,7.43
2022-12-29T12:34:57.774Z,3.55
2022-12-29T12:37:38.570Z,4.25
2022-12-29T12:40:35.323Z,3.05
2022-12-29T12:43:24.461Z,5.70
2022-12-29T12:46:26.799Z,4.68
2022-12-29T12:49:48.290Z,5.75
2022-12-29T12:52:47.501Z,5.00
2022-12-29T12:55:39.952Z,2.78
2022-12-29T12:58:35.579Z,4.70
2022-12-29T13:01:38.761Z,2.85
2022-12-29T13:04:50.703Z,4.68
2022-12-29T13:07:42.837Z,4.47
2022-12-29T13:10:34.409Z,3.28
2022-12-29T13:13:56.245Z,5.07
2022-12-29T13:16:29.642Z,3.78
2022-12-29T13:19:40.695Z,3.20
2022-12-29T13:22:36.508Z,3.08
2022-12-29T13:25:38.128Z,6.55
2022-12-29T13:28:33.569Z,3.92
2022-12-29T13:31:24.715Z,4.82
2022-12-29T13:34:18.477Z,3.20
2022-12-29T13:36:59.620Z,4.40
2022-12-29T13:39:41.874Z,2.80
2022-12-29T13:42:16.602Z,4.80
2022-12-29T13:45:01.701Z,3.95
2022-12-29T13:48:01.340Z,2.75
2022-12-29T13:50:37.662Z,4.45
2022-12-29T13:53:47.833Z,3.88
2022-12-29T13:56:26.531Z,3.90
2022-12-29T13:59:06.692Z,2.90
2022-12-29T14:01:54.751Z,2.40
2022-12-29T14:04:35.222Z,3.10
2022-12-29T14:07:22.172Z,3.28
2022-12-29T14:10:01.506Z,2.60
2022-12-29T14:12:48.700Z,3.08
2022-12-29T14:15:30.492Z,3.88
2022-12-29T14:18:16.643Z,2.97
2022-12-29T14:23:44.573Z,3.20
2022-12-29T14:26:39.379Z,2.08
2022-12-29T14:29:44.232Z,2.47
2022-12-29T14:32:28.554Z,2.35
2022-12-29T14:35:46.832Z,4.10
2022-12-29T14:38:35.536Z,3.58
2022-12-29T14:41:29.945Z,3.35
2022-12-29T14:44:10.701Z,2.72
2022-12-29T14:47:18.455Z,1.48
2022-12-29T14:49:58.519Z,2.88
2022-12-29T14:52:32.321Z,5.07
2022-12-29T14:58:23.197Z,3.95
2022-12-29T15:00:54.741Z,2.58
2022-12-29T15:03:54.360Z,5.05
2022-12-29T15:06:36.457Z,3.45
2022-12-29T15:09:31.184Z,5.13
2022-12-29T15:12:23.927Z,3.00
2022-12-29T15:15:08.943Z,3.45
2022-12-29T15:17:51.406Z,2.53
2022-12-29T15:20:29.334Z,3.67
2022-12-29T15:23:19.404Z,3.78
2022-12-29T15:26:03.545Z,2.55
2022-12-29T15:28:49.590Z,2.35
2022-12-29T15:31:30.887Z,2.90
2022-12-29T15:34:13.306Z,3.00
2022-12-29T15:36:43.994Z,4.18
2022-12-29T15:39:51.121Z,3.53
2022-12-29T15:42:47.564Z,3.30
2022-12-29T15:45:25.345Z,2.80
2022-12-29T15:48:01.722Z,3.13
2022-12-29T15:50:42.848Z,2.17
2022-12-29T15:53:20.389Z,4.18
2022-12-29T15:56:15.788Z,2.28
2022-12-29T15:58:59.571Z,1.45
2022-12-29T16:01:41.268Z,2.30
2022-12-29T16:04:17.015Z,4.72
2022-12-29T16:07:35.740Z,4.18
2022-12-29T16:10:35.874Z,1.42
2022-12-29T16:13:23.773Z,2.78
2022-12-29T16:16:10.278Z,1.88
2022-12-29T16:18:43.693Z,1.63
2022-12-29T16:21:48.161Z,7.30
2022-12-29T16:24:35.366Z,2.63
2022-12-29T16:27:44.981Z,2.55
2022-12-29T16:30:40.684Z,2.20
2022-12-29T16:33:50.360Z,2.20
2022-12-29T16:36:37.677Z,1.30
2022-12-29T16:39:21.633Z,2.45
2022-12-29T16:41:58.836Z,1.27
2022-12-29T16:44:34.154Z,3.97
2022-12-29T16:47:35.030Z,1.67
2022-12-29T16:50:20.256Z,1.30
2022-12-29T16:52:57.080Z,2.60
2022-12-29T16:55:32.143Z,4.40
2022-12-29T16:58:13.189Z,2.30
2022-12-29T17:00:44.627Z,4.30
2022-12-29T17:03:16.221Z,1.33
2022-12-29T17:05:46.395Z,1.85
2022-12-29T17:08:33.345Z,1.80
2022-12-29T17:11:30.023Z,2.53
2022-12-29T17:14:00.548Z,3.10
2022-12-29T17:16:39.317Z,2.10
2022-12-29T17:19:18.021Z,2.53
2022-12-29T17:21:49.377Z,4.55
2022-12-29T17:24:27.958Z,2.22
2022-12-29T17:27:09.185Z,3.28
2022-12-29T17:29:47.706Z,6.40
2022-12-29T17:32:23.538Z,3.28
2022-12-29T17:34:54.089Z,5.35
2022-12-29T17:37:33.023Z,3.72
2022-12-29T17:40:19.760Z,2.65
2022-12-29T17:42:55.035Z,2.08
2022-12-29T17:45:30.764Z,4.72
2022-12-29T17:48:05.731Z,3.65
2022-12-29T17:50:41.198Z,4.75
2022-12-29T17:53:34.992Z,3.55
2022-12-29T17:56:08.807Z,3.22
2022-12-29T17:58:49.468Z,5.45
2022-12-29T18:01:28.936Z,2.75
2022-12-29T18:04:05.758Z,4.05
2022-12-29T18:06:46.868Z,2.72
2022-12-29T18:09:28.252Z,3.70
2022-12-29T18:12:07.950Z,3.17
2022-12-29T18:14:38.063Z,4.07
2022-12-29T18:20:24.608Z,3.95
2022-12-29T18:23:21.752Z,4.93
2022-12-29T18:26:12.373Z,3.00
2022-12-29T18:28:52.921Z,2.97
2022-12-29T18:31:51.221Z,1.98
2022-12-29T18:34:26.810Z,2.58
2022-12-29T18:37:04.245Z,2.22
2022-12-29T18:39:40.920Z,2.55
2022-12-29T18:42:18.300Z,2.75
2022-12-29T18:44:52.242Z,4.15
2022-12-29T18:47:31.977Z,4.13
2022-12-29T18:50:02.253Z,5.45
2022-12-29T18:52:32.869Z,6.47
2022-12-29T18:55:03.042Z,3.28
2022-12-29T18:57:34.162Z,8.02
2022-12-29T19:00:05.337Z,2.78
2022-12-29T19:02:37.533Z,7.30
2022-12-29T19:05:36.116Z,3.28
2022-12-29T19:08:10.933Z,14.23
2022-12-29T19:10:45.577Z,3.35
2022-12-29T19:13:26.460Z,4.93
2022-12-29T19:16:00.844Z,3.83
2022-12-29T19:18:58.151Z,5.75
2022-12-29T19:21:23.147Z,2.17
2022-12-29T19:23:57.467Z,3.33
2022-12-29T19:26:37.445Z,6.82
2022-12-29T19:29:17.770Z,5.88
2022-12-29T19:31:57.099Z,4.53
2022-12-29T19:34:27.713Z,6.90
2022-12-29T19:37:17.141Z,4.53
2022-12-29T19:39:53.603Z,4.28
2022-12-29T19:42:42.198Z,8.68
2022-12-29T19:45:13.826Z,3.90
2022-12-29T19:47:53.142Z,5.88
2022-12-29T19:50:29.559Z,4.25
2022-12-29T19:53:05.455Z,4.47
2022-12-29T19:55:42.021Z,5.45
2022-12-29T19:58:13.452Z,7.68
2022-12-29T20:00:51.034Z,6.38
2022-12-29T20:03:29.727Z,5.30
2022-12-29T20:06:24.206Z,4.88
2022-12-29T20:08:59.787Z,7.40
2022-12-29T20:11:33.461Z,4.65
2022-12-29T20:14:08.503Z,3.50
2022-12-29T20:17:02.450Z,6.72
2022-12-29T20:19:31.609Z,3.90
2022-12-29T20:22:07.500Z,6.07
2022-12-29T20:24:49.712Z,2.55
2022-12-29T20:27:23.307Z,4.53
2022-12-29T20:30:05.205Z,3.53
2022-12-29T20:32:36.976Z,7.03
2022-12-29T20:35:16.495Z,8.38
2022-12-29T20:37:55.880Z,5.00
2022-12-29T20:40:27.926Z,1.80
2022-12-29T20:43:01.468Z,5.22
2022-12-29T20:45:31.730Z,9.77
2022-12-29T20:48:11.089Z,6.10
2022-12-29T20:50:46.867Z,2.90
2022-12-29T20:53:27.752Z,5.10
2022-12-29T20:56:03.832Z,5.45
2022-12-29T20:59:00.270Z,6.05
2022-12-29T21:01:37.399Z,5.75
2022-12-29T21:04:12.172Z,3.85
2022-12-29T21:06:45.392Z,3.75
2022-12-29T21:09:15.905Z,4.05
2022-12-29T21:11:54.745Z,3.95
2022-12-29T21:14:33.302Z,8.23
2022-12-29T21:17:05.792Z,6.15
2022-12-29T21:19:41.969Z,5.70
2022-12-29T21:22:12.007Z,6.47
2022-12-29T21:24:45.360Z,5.85
2022-12-29T21:27:15.498Z,8.48
2022-12-29T21:29:54.585Z,4.90
2022-12-29T21:32:27.414Z,5.68
2022-12-29T21:35:06.442Z,8.40
2022-12-29T21:37:47.841Z,7.68
2022-12-29T21:40:18.581Z,8.88
2022-12-29T21:45:38.520Z,6.35
2022-12-29T21:48:47.601Z,7.50
2022-12-29T21:51:39.412Z,11.68
2022-12-29T21:54:29.679Z,11.07
2022-12-29T21:57:21.480Z,8.38
2022-12-29T22:00:42.368Z,7.43
2022-12-29T22:03:32.437Z,11.35
2022-12-29T22:06:31.180Z,11.77
2022-12-29T22:09:22.088Z,12.30
2022-12-29T22:12:16.247Z,13.18
2022-12-29T22:14:51.730Z,8.30
2022-12-29T22:17:28.719Z,8.25
2022-12-29T22:20:01.745Z,9.77
2022-12-29T22:22:32.263Z,11.80
2022-12-29T22:25:10.751Z,12.13
2022-12-29T22:27:41.296Z,11.88
2022-12-29T22:30:19.915Z,12.00
2022-12-29T22:32:50.423Z,11.40
2022-12-29T22:35:29.155Z,11.02
2022-12-29T22:38:04.717Z,13.50
2022-12-29T22:40:34.816Z,17.10
2022-12-29T22:43:12.932Z,17.00
2022-12-29T22:45:44.107Z,16.13
2022-12-29T22:48:17.090Z,14.77
2022-12-29T22:50:49.913Z,15.82
2022-12-29T22:53:23.255Z,15.18
2022-12-29T22:56:17.462Z,11.57
2022-12-29T22:58:59.931Z,14.43
2022-12-29T23:01:30.454Z,14.27
2022-12-29T23:04:27.053Z,11.10
2022-12-29T23:06:53.636Z,12.45
2022-12-29T23:09:24.515Z,11.15
2022-12-29T23:11:59.758Z,13.45
2022-12-29T23:14:33.181Z,7.28
2022-12-29T23:17:12.551Z,13.40
2022-12-29T23:19:44.696Z,9.10
2022-12-29T23:22:18.001Z,11.75
2022-12-29T23:24:48.596Z,11.32
2022-12-29T23:29:57.198Z,10.55
2022-12-29T23:32:33.039Z,15.35
2022-12-29T23:35:09.912Z,12.38
2022-12-29T23:37:40.794Z,14.65
2022-12-29T23:40:11.743Z,11.52
2022-12-29T23:42:41.969Z,9.65
2022-12-29T23:48:01.184Z,10.88
2022-12-29T23:50:59.917Z,12.70
2022-12-29T23:53:33.215Z,11.40
2022-12-29T23:56:03.989Z,16.65
2022-12-29T23:58:40.082Z,11.13
